createdAt,value
2019-02-27T00:02:08.461Z,93.03
2019-02-27T00:07:32.977Z,81.00
2019-02-27T00:12:56.657Z,112.90
2019-02-27T00:18:23.757Z,105.93
2019-02-27T00:23:47.192Z,131.30
2019-02-27T00:29:10.993Z,154.73
2019-02-27T00:34:35.496Z,138.27
2019-02-27T00:39:59.439Z,120.20
2019-02-27T00:45:23.796Z,129.33
2019-02-27T00:50:48.187Z,107.60
2019-02-27T00:56:12.963Z,139.70
2019-02-27T01:01:37.136Z,97.40
2019-02-27T01:07:01.012Z,147.87
2019-02-27T01:12:25.875Z,113.20
2019-02-27T01:17:50.312Z,111.93
2019-02-27T01:23:15.086Z,122.63
2019-02-27T01:28:44.710Z,104.93
2019-02-27T01:34:05.776Z,112.93
2019-02-27T01:39:30.653Z,119.63
2019-02-27T01:44:54.428Z,129.90
2019-02-27T01:50:30.920Z,244.00
2019-02-27T01:55:56.469Z,84.30
2019-02-27T02:01:21.616Z,133.63
2019-02-27T02:06:45.240Z,80.60
2019-02-27T02:12:18.996Z,82.07
2019-02-27T02:18:30.137Z,70.77
2019-02-27T02:24:37.419Z,89.57
2019-02-27T02:30:38.651Z,191.30
2019-02-27T02:36:24.954Z,223.60
2019-02-27T02:42:15.627Z,180.93
2019-02-27T02:47:55.814Z,171.03
2019-02-27T02:53:31.476Z,190.60
2019-02-27T02:59:45.783Z,193.43
2019-02-27T03:06:02.101Z,191.93
2019-02-27T03:11:54.203Z,188.63
2019-02-27T03:18:02.498Z,202.93
2019-02-27T03:23:40.381Z,152.47
2019-02-27T03:29:17.335Z,193.80
2019-02-27T03:35:08.243Z,214.40
2019-02-27T03:41:07.058Z,201.03
2019-02-27T03:46:50.445Z,175.70
2019-02-27T03:52:40.144Z,187.43
2019-02-27T03:58:26.848Z,229.67
2019-02-27T04:04:14.819Z,220.43
2019-02-27T04:09:38.853Z,195.77
2019-02-27T04:15:04.068Z,201.07
2019-02-27T04:20:27.908Z,170.80
2019-02-27T04:25:52.728Z,183.67
2019-02-27T04:31:16.344Z,156.60
2019-02-27T04:36:40.845Z,154.50
2019-02-27T04:42:05.540Z,185.90
2019-02-27T04:47:30.049Z,177.83
2019-02-27T04:52:57.591Z,164.00
2019-02-27T04:58:19.577Z,177.53
2019-02-27T05:03:43.554Z,176.63
2019-02-27T05:09:08.262Z,153.73
2019-02-27T05:14:33.335Z,150.77
2019-02-27T05:19:57.029Z,180.73
2019-02-27T05:25:20.799Z,127.87
2019-02-27T05:30:45.927Z,121.83
2019-02-27T05:36:10.122Z,145.43
2019-02-27T05:41:33.947Z,103.90
2019-02-27T05:46:58.509Z,127.13
2019-02-27T05:52:22.234Z,128.63
2019-02-27T05:57:46.974Z,106.57
2019-02-27T06:03:11.512Z,92.80
2019-02-27T06:08:38.049Z,94.43
2019-02-27T06:14:02.566Z,77.37
2019-02-27T06:19:26.635Z,75.87
2019-02-27T06:24:50.489Z,73.43
2019-02-27T06:30:16.573Z,77.43
2019-02-27T06:35:40.622Z,71.67
2019-02-27T06:41:05.378Z,63.33
2019-02-27T06:46:29.505Z,63.03
2019-02-27T06:51:53.112Z,58.63
2019-02-27T06:57:17.757Z,57.23
2019-02-27T07:02:42.609Z,53.57
2019-02-27T07:08:06.715Z,49.87
2019-02-27T07:13:30.460Z,51.13
2019-02-27T07:18:54.372Z,48.23
2019-02-27T07:24:18.283Z,45.17
2019-02-27T07:29:43.112Z,32.60
2019-02-27T07:35:07.200Z,36.23
2019-02-27T07:40:31.113Z,31.70
2019-02-27T07:45:55.922Z,29.27
2019-02-27T07:51:23.206Z,30.30
2019-02-27T07:56:47.137Z,36.20
2019-02-27T08:02:12.210Z,31.67
2019-02-27T08:07:36.095Z,32.33
2019-02-27T08:13:00.160Z,31.33
2019-02-27T08:18:30.152Z,31.13
2019-02-27T08:23:50.656Z,31.13
2019-02-27T08:29:14.407Z,31.90
2019-02-27T08:34:38.041Z,31.40
2019-02-27T08:40:02.661Z,31.30
2019-02-27T08:45:27.772Z,30.00
2019-02-27T08:50:51.980Z,29.63
2019-02-27T08:56:16.843Z,26.03
2019-02-27T09:01:42.838Z,24.73
2019-02-27T09:07:07.234Z,24.47
2019-02-27T09:12:32.227Z,25.23
2019-02-27T09:17:59.290Z,25.57
2019-02-27T09:23:22.258Z,23.40
2019-02-27T09:28:46.719Z,26.03
2019-02-27T09:34:11.387Z,24.40
2019-02-27T09:39:35.237Z,25.33
2019-02-27T09:44:59.407Z,24.90
2019-02-27T09:50:37.736Z,25.93
2019-02-27T09:56:01.680Z,26.40
2019-02-27T10:01:26.153Z,26.82
2019-02-27T10:06:49.811Z,26.12
2019-02-27T10:12:14.073Z,26.37
2019-02-27T10:17:37.814Z,25.52
2019-02-27T10:23:02.205Z,25.23
2019-02-27T10:28:26.784Z,26.25
2019-02-27T10:33:51.211Z,27.35
2019-02-27T10:39:16.049Z,27.93
2019-02-27T10:44:40.809Z,28.07
2019-02-27T10:50:05.476Z,25.55
2019-02-27T10:55:28.903Z,27.87
2019-02-27T11:00:52.541Z,27.55
2019-02-27T11:06:16.179Z,28.17
2019-02-27T11:11:40.280Z,28.00
2019-02-27T11:17:04.689Z,28.25
2019-02-27T11:22:31.430Z,26.27
2019-02-27T11:27:53.937Z,23.95
2019-02-27T11:33:25.743Z,21.05
2019-02-27T11:38:43.667Z,19.30
2019-02-27T11:44:08.388Z,22.90
2019-02-27T11:49:33.077Z,20.70
2019-02-27T11:54:57.539Z,19.90
2019-02-27T12:00:26.077Z,20.43
2019-02-27T12:05:50.055Z,21.73
2019-02-27T12:11:14.240Z,20.60
2019-02-27T12:16:39.030Z,20.35
2019-02-27T12:22:03.784Z,20.82
2019-02-27T12:27:47.893Z,21.50
2019-02-27T12:32:56.700Z,20.05
2019-02-27T12:38:19.525Z,20.60
2019-02-27T12:43:44.207Z,21.10
2019-02-27T12:49:09.097Z,21.85
2019-02-27T12:54:33.124Z,20.23
2019-02-27T12:59:57.381Z,21.52
2019-02-27T13:05:26.428Z,18.70
2019-02-27T13:10:48.694Z,19.95
2019-02-27T13:16:14.518Z,20.43
2019-02-27T13:21:39.961Z,17.15
2019-02-27T13:27:06.633Z,16.62
2019-02-27T13:32:29.568Z,15.72
2019-02-27T13:37:53.286Z,15.50
2019-02-27T13:43:17.978Z,13.95
2019-02-27T13:48:42.710Z,15.10
2019-02-27T13:54:07.230Z,14.93
2019-02-27T13:59:30.936Z,13.30
2019-02-27T14:04:57.026Z,15.05
2019-02-27T14:10:21.173Z,13.95
2019-02-27T14:15:45.075Z,13.58
2019-02-27T14:21:08.975Z,13.40
2019-02-27T14:26:32.887Z,14.38
2019-02-27T14:31:56.889Z,14.35
2019-02-27T14:37:21.669Z,14.33
2019-02-27T14:42:45.426Z,14.35
2019-02-27T14:48:09.012Z,15.03
2019-02-27T14:53:33.472Z,15.35
2019-02-27T14:58:58.005Z,15.53
2019-02-27T15:04:22.491Z,15.60
2019-02-27T15:09:47.990Z,14.63
2019-02-27T15:15:18.775Z,14.00
2019-02-27T15:20:43.408Z,13.90
2019-02-27T15:26:09.933Z,14.07
2019-02-27T15:31:34.608Z,12.80
2019-02-27T15:37:00.973Z,13.78
2019-02-27T15:42:24.901Z,14.20
2019-02-27T15:47:49.771Z,12.85
2019-02-27T15:53:15.033Z,13.93
2019-02-27T15:58:39.526Z,12.93
2019-02-27T16:04:03.501Z,12.25
2019-02-27T16:09:29.114Z,13.00
2019-02-27T16:14:53.785Z,13.95
2019-02-27T16:20:19.327Z,12.85
2019-02-27T16:25:43.805Z,13.90
2019-02-27T16:31:07.934Z,13.00
2019-02-27T16:36:36.146Z,13.93
2019-02-27T16:42:01.042Z,12.17
2019-02-27T16:47:23.849Z,11.97
2019-02-27T16:52:48.535Z,13.80
2019-02-27T16:58:12.596Z,12.73
2019-02-27T17:03:36.782Z,11.43
2019-02-27T17:09:01.443Z,11.87
2019-02-27T17:14:26.696Z,13.37
2019-02-27T17:19:52.966Z,12.03
2019-02-27T17:25:17.964Z,12.90
2019-02-27T17:30:42.440Z,12.83
2019-02-27T17:36:06.328Z,14.27
2019-02-27T17:41:30.215Z,14.43
2019-02-27T17:46:54.810Z,14.70
2019-02-27T17:52:19.821Z,16.00
2019-02-27T17:57:46.251Z,15.90
2019-02-27T18:03:10.512Z,16.23
2019-02-27T18:08:35.341Z,16.63
2019-02-27T18:14:00.162Z,16.07
2019-02-27T18:19:24.620Z,12.50
2019-02-27T18:24:49.071Z,13.20
2019-02-27T18:30:15.513Z,15.57
2019-02-27T18:35:40.821Z,13.60
2019-02-27T18:41:05.577Z,14.70
2019-02-27T18:46:30.209Z,15.00
2019-02-27T18:51:54.878Z,13.23
2019-02-27T18:57:19.825Z,15.17
2019-02-27T19:02:44.293Z,15.50
2019-02-27T19:08:08.343Z,16.83
2019-02-27T19:13:32.437Z,16.70
2019-02-27T19:18:57.680Z,17.23
2019-02-27T19:24:26.635Z,15.90
2019-02-27T19:29:48.152Z,16.43
2019-02-27T19:35:13.598Z,15.53
2019-02-27T19:40:38.043Z,14.73
2019-02-27T19:46:04.016Z,16.07
2019-02-27T19:51:27.788Z,15.53
2019-02-27T19:56:51.857Z,15.50
2019-02-27T20:02:16.135Z,16.97
2019-02-27T20:07:40.426Z,15.63
2019-02-27T20:13:04.572Z,16.73
2019-02-27T20:18:29.457Z,15.27
2019-02-27T20:23:53.526Z,17.47
2019-02-27T20:29:18.303Z,16.63
2019-02-27T20:34:45.852Z,16.13
2019-02-27T20:40:09.094Z,14.17
2019-02-27T20:45:33.503Z,14.60
2019-02-27T20:50:57.391Z,11.73
2019-02-27T20:56:21.866Z,13.80
2019-02-27T21:01:47.278Z,12.27
2019-02-27T21:07:11.214Z,10.87
2019-02-27T21:12:37.362Z,10.37
2019-02-27T21:18:02.000Z,11.80
2019-02-27T21:23:26.636Z,10.13
2019-02-27T21:28:58.275Z,11.53
2019-02-27T21:34:19.497Z,10.63
2019-02-27T21:39:42.625Z,11.30
2019-02-27T21:45:07.982Z,10.13
2019-02-27T21:50:32.523Z,10.53
2019-02-27T21:55:56.213Z,11.00
2019-02-27T22:01:22.042Z,10.83
2019-02-27T22:06:46.472Z,10.67
2019-02-27T22:12:10.975Z,10.43
2019-02-27T22:17:36.905Z,11.03
2019-02-27T22:23:02.190Z,12.17
2019-02-27T22:28:28.737Z,11.53
2019-02-27T22:33:56.245Z,12.43
2019-02-27T22:39:19.606Z,11.27
2019-02-27T22:44:43.940Z,10.57
2019-02-27T22:50:09.001Z,11.03
2019-02-27T22:55:32.696Z,11.37
2019-02-27T23:01:09.958Z,10.37
2019-02-27T23:06:35.638Z,11.93
2019-02-27T23:12:00.305Z,11.40
2019-02-27T23:17:24.816Z,11.77
2019-02-27T23:22:49.800Z,12.10
2019-02-27T23:28:13.743Z,11.80
2019-02-27T23:33:38.536Z,11.33
2019-02-27T23:39:03.008Z,12.10
2019-02-27T23:44:28.685Z,13.80
2019-02-27T23:49:52.689Z,13.83
2019-02-27T23:55:16.264Z,13.47
